Details From KHAF - HALF MOON BAY
To KSCK - Stockton Metropolitan
Flight Number -
Tags generated
Created
Modified
Stats Distance 64 nm / 119 km
Max Altitude 2,500 ft / 762 m
Waypoints 3
Social Downloads 9
Likes 0
Share VATSIM

Download

Looking for another format? Having issues loading an existing format? Contact us
Advertisement - Login to hide

Notes

Basic altitude profile: - Ascent Rate: 2500ft/min - Ascent Speed: 250kts - Cruise Altitude: 10000ft - Cruise Speed: 380kts - Descent Rate: 2500ft/min - Descent Speed: 250kts Options: - Use NATs: yes - Use PACOTS: yes - Use low airways: yes - Use high airways: no

Route

KHAF BYRON KSCK

ID Type Via Altitude Latitude Longitude Leg Dist Tot Dist Heading (true) Name
O KHAF APT - 0 ft / 0 m 37.51343˚ -122.50116˚ - 0 nm - HALF MOON BAY
BYRON FIX - 2,500 ft / 762 m 37.82286˚ -121.46937˚ 52 nm 52 nm 69° / 70° -
O KSCK APT - 0 ft / 0 m 37.89867˚ -121.23909˚ 11 nm 64 nm 67° / 67° Stockton Metropolitan

Altitude Profile

Advertisement - Login to hide

KHAF

Details ICAO KHAF
Name HALF MOON BAY
Region United States
Timezone America/Los_Angeles (UTC-8.0)
Stats Elevation 66 ft / 20 m (AMSL)
Location 37.513435° -122.501163°
Runways 1
Magnetic Variation 13.459° E

METAR

KHAF 181315Z AUTO 00000KT 10SM CLR 04/00 A3012 RMK AO2

Decode

TAF

Not found

Departure Runways

ID Width Length Bearing (true) Bearing (mag) Surface Threshold Offset Overrun Length
12 151 ft / 46 m 5,005 ft / 1,525 m 137.06° 123.60° Asphalt 764 ft / 233 m 0 ft / 0 m
30 151 ft / 46 m 5,005 ft / 1,525 m 317.06° 303.60° Asphalt 764 ft / 233 m 0 ft / 0 m

KSCK

Details ICAO KSCK (SCK)
Name Stockton Metropolitan
Region United States
Timezone America/Los_Angeles (UTC-8.0)
Stats Elevation 30 ft / 9 m (AMSL)
Location 37.898670° -121.239089°
Runways 3
Magnetic Variation 13.341° E

METAR

KSCK 181255Z AUTO 13003KT 9SM CLR 02/M01 A3018 RMK AO2 SLP219 T00221011

Decode

TAF

KSCK 181120Z 1812/1912 VRB04KT P6SM FEW250

Decode

Destination Runways

ID Width Length Bearing (true) Bearing (mag) Surface Threshold Offset Overrun Length
05 200 ft / 61 m 2,873 ft / 876 m 62.26° 48.92° Grass 0 ft / 0 m 0 ft / 0 m
11L 151 ft / 46 m 10,647 ft / 3,245 m 127.69° 114.35° Asphalt 991 ft / 302 m 200 ft / 61 m
16 200 ft / 61 m 2,741 ft / 835 m 176.99° 163.65° Grass 0 ft / 0 m 0 ft / 0 m
23 200 ft / 61 m 2,873 ft / 876 m 242.26° 228.92° Grass 0 ft / 0 m 0 ft / 0 m
29R 151 ft / 46 m 10,647 ft / 3,245 m 307.71° 294.37° Asphalt 1,001 ft / 305 m 115 ft / 35 m
34 200 ft / 61 m 2,741 ft / 835 m 356.99° 343.65° Grass 0 ft / 0 m 0 ft / 0 m

Approach Navaids

Runway Type Ident Frequency Range Bearing (true) Bearing (mag) Slope Elevation
29R Localiser ISCK 109.10 MHz 18 nm / 33 km 307.69° 294.34° - 24 ft / 7 m (AMSL)
29R Glidescope ISCK 109.10 MHz 10 nm / 19 km 307.70° 294.36° 2.90° 29 ft / 9 m (AMSL)